Terminal Aerodrome Forecast
Issued by NWS

Home | Current Version | Previous Version | Text Only | Print | Product List | Glossary On
Versions: 1 2 3 4 5 6 7 8 9 10 11 12 13 14
000
FTUS43 KFGF 241100
TAFTVF
TAF
KTVF 241126Z 2412/2512 12008KT P6SM OVC020
      TEMPO 2414/2416 5SM -RA BR OVC025
     FM241600 14008KT 5SM -RA BR OVC020
     FM242100 16008KT P6SM OVC025
      TEMPO 2421/2424 -SHRA
     FM250200 20006KT P6SM BKN040
      AMD LTD TO CLD VIS AND WIND=

USA.gov is the U.S. government's official web portal to all federal, state and local government web resources and services.